createdAt,value
2022-07-28T00:00:04.677Z,11.70
2022-07-28T00:02:35.079Z,11.60
2022-07-28T00:05:01.935Z,11.60
2022-07-28T00:07:28.636Z,11.50
2022-07-28T00:10:00.169Z,11.50
2022-07-28T00:12:27.693Z,11.40
2022-07-28T00:14:54.455Z,11.40
2022-07-28T00:17:21.185Z,11.40
2022-07-28T00:19:47.933Z,11.50
2022-07-28T00:22:14.672Z,11.40
2022-07-28T00:24:41.515Z,11.40
2022-07-28T00:27:08.269Z,11.30
2022-07-28T00:29:43.410Z,11.30
2022-07-28T00:32:17.374Z,11.30
2022-07-28T00:34:44.261Z,11.30
2022-07-28T00:37:13.318Z,11.30
2022-07-28T00:39:41.768Z,11.20
2022-07-28T00:42:09.091Z,11.20
2022-07-28T00:44:36.022Z,11.20
2022-07-28T00:47:02.755Z,11.20
2022-07-28T00:49:29.733Z,11.20
2022-07-28T00:51:57.178Z,11.20
2022-07-28T00:54:24.008Z,11.20
2022-07-28T00:56:51.002Z,11.20
2022-07-28T00:59:17.778Z,11.20
2022-07-28T01:01:44.635Z,11.10
2022-07-28T01:04:11.911Z,11.10
2022-07-28T01:07:00.551Z,11.10
2022-07-28T01:09:56.382Z,11.10
2022-07-28T01:13:01.543Z,11.10
2022-07-28T01:15:36.706Z,11.10
2022-07-28T01:18:20.901Z,11.00
2022-07-28T01:20:52.616Z,11.00
2022-07-28T01:23:31.306Z,11.10
2022-07-28T01:25:57.838Z,11.10
2022-07-28T01:28:33.346Z,11.10
2022-07-28T01:31:05.471Z,11.10
2022-07-28T01:33:38.157Z,11.10
2022-07-28T01:36:18.924Z,11.10
2022-07-28T01:38:47.355Z,11.10
2022-07-28T01:41:21.324Z,11.10
2022-07-28T01:43:55.175Z,11.10
2022-07-28T01:46:22.731Z,11.10
2022-07-28T01:48:51.361Z,11.10
2022-07-28T01:51:19.809Z,11.10
2022-07-28T01:53:48.938Z,11.00
2022-07-28T01:56:17.755Z,11.10
2022-07-28T01:58:45.615Z,11.10
2022-07-28T02:01:14.576Z,11.10
2022-07-28T02:03:43.646Z,11.10
2022-07-28T02:06:12.194Z,11.10
2022-07-28T02:08:40.777Z,11.20
2022-07-28T02:11:26.594Z,11.10
2022-07-28T02:13:55.488Z,11.10
2022-07-28T02:16:25.234Z,11.10
2022-07-28T02:18:55.237Z,11.10
2022-07-28T02:21:25.419Z,11.10
2022-07-28T02:23:53.200Z,11.10
2022-07-28T02:26:26.939Z,11.10
2022-07-28T02:28:57.283Z,11.10
2022-07-28T02:31:47.730Z,11.20
2022-07-28T02:34:16.424Z,11.10
2022-07-28T02:36:50.883Z,11.10
2022-07-28T02:39:23.036Z,11.10
2022-07-28T02:41:57.246Z,11.10
2022-07-28T02:44:28.375Z,11.10
2022-07-28T02:46:57.245Z,11.10
2022-07-28T02:49:28.299Z,11.10
2022-07-28T02:51:56.478Z,11.10
2022-07-28T02:54:25.752Z,11.10
2022-07-28T02:56:54.179Z,11.10
2022-07-28T02:59:21.786Z,11.10
2022-07-28T03:01:50.015Z,11.10
2022-07-28T03:04:38.051Z,11.00
2022-07-28T03:07:05.839Z,11.10
2022-07-28T03:09:45.644Z,11.00
2022-07-28T03:12:12.655Z,11.00
2022-07-28T03:14:39.839Z,11.00
2022-07-28T03:17:06.781Z,10.90
2022-07-28T03:19:33.886Z,11.00
2022-07-28T03:22:00.985Z,10.90
2022-07-28T03:24:35.429Z,10.90
2022-07-28T03:27:20.649Z,10.90
2022-07-28T03:29:53.695Z,10.80
2022-07-28T03:32:23.773Z,10.80
2022-07-28T03:34:52.328Z,10.80
2022-07-28T03:37:25.722Z,10.70
2022-07-28T03:39:56.715Z,10.70
2022-07-28T03:42:25.676Z,10.70
2022-07-28T03:44:52.587Z,10.70
2022-07-28T03:47:23.541Z,10.70
2022-07-28T03:49:50.468Z,10.60
2022-07-28T03:52:18.262Z,10.70
2022-07-28T03:54:45.647Z,10.60
2022-07-28T03:57:12.618Z,10.60
2022-07-28T03:59:40.393Z,10.60
2022-07-28T04:02:07.522Z,10.50
2022-07-28T04:04:34.255Z,10.60
2022-07-28T04:07:00.960Z,10.50
2022-07-28T04:09:27.713Z,10.50
2022-07-28T04:11:54.435Z,10.60
2022-07-28T04:14:21.530Z,10.50
2022-07-28T04:16:48.603Z,10.50
2022-07-28T04:19:15.308Z,10.50
2022-07-28T04:21:42.452Z,10.50
2022-07-28T04:24:10.979Z,10.50
2022-07-28T04:26:38.323Z,10.50
2022-07-28T04:29:05.215Z,10.50
2022-07-28T04:31:32.033Z,10.50
2022-07-28T04:34:00.007Z,10.40
2022-07-28T04:36:26.972Z,10.50
2022-07-28T04:38:53.863Z,10.50
2022-07-28T04:41:20.780Z,10.50
2022-07-28T04:43:47.543Z,10.50
2022-07-28T04:46:15.315Z,10.50
2022-07-28T04:48:42.581Z,10.50
2022-07-28T04:51:09.851Z,10.60
2022-07-28T04:53:36.651Z,10.70
2022-07-28T04:56:03.607Z,10.70
2022-07-28T04:58:30.957Z,10.80
2022-07-28T05:00:58.024Z,10.90
2022-07-28T05:03:24.798Z,11.00
2022-07-28T05:05:54.905Z,11.10
2022-07-28T05:08:26.248Z,11.20
2022-07-28T05:10:54.650Z,11.20
2022-07-28T05:13:21.298Z,11.30
2022-07-28T05:15:48.637Z,11.40
2022-07-28T05:18:15.284Z,11.50
2022-07-28T05:20:41.963Z,11.60
2022-07-28T05:23:09.692Z,11.70
2022-07-28T05:25:37.854Z,11.90
2022-07-28T05:28:04.755Z,12.00
2022-07-28T05:30:31.480Z,12.20
2022-07-28T05:33:01.201Z,12.40
2022-07-28T05:35:28.412Z,12.60
2022-07-28T05:37:55.059Z,12.60
2022-07-28T05:40:21.713Z,12.80
2022-07-28T05:42:48.591Z,12.90
2022-07-28T05:45:17.252Z,13.00
2022-07-28T05:47:49.925Z,13.20
2022-07-28T05:50:18.716Z,13.30
2022-07-28T05:52:46.840Z,13.50
2022-07-28T05:55:14.340Z,13.60
2022-07-28T05:57:41.839Z,13.70
2022-07-28T06:00:11.514Z,13.90
2022-07-28T06:02:39.067Z,14.00
2022-07-28T06:05:06.583Z,14.10
2022-07-28T06:07:42.422Z,14.20
2022-07-28T06:10:15.863Z,14.30
2022-07-28T06:12:47.912Z,14.30
2022-07-28T06:15:24.330Z,14.30
2022-07-28T06:17:53.587Z,14.40
2022-07-28T06:20:22.367Z,14.50
2022-07-28T06:22:55.325Z,14.70
2022-07-28T06:25:24.473Z,14.90
2022-07-28T06:27:59.483Z,15.10
2022-07-28T06:30:27.511Z,15.20
2022-07-28T06:32:54.789Z,15.20
2022-07-28T06:35:22.592Z,15.30
2022-07-28T06:37:51.691Z,15.40
2022-07-28T06:40:20.903Z,15.60
2022-07-28T06:42:49.457Z,15.70
2022-07-28T06:45:21.023Z,15.90
2022-07-28T06:47:49.667Z,16.00
2022-07-28T06:50:25.217Z,16.20
2022-07-28T06:52:58.712Z,16.30
2022-07-28T06:55:26.133Z,16.40
2022-07-28T06:58:03.279Z,16.50
2022-07-28T07:00:30.268Z,16.60
2022-07-28T07:02:57.328Z,16.70
2022-07-28T07:05:25.973Z,16.90
2022-07-28T07:07:52.675Z,17.10
2022-07-28T07:10:19.422Z,17.30
2022-07-28T07:12:46.247Z,17.50
2022-07-28T07:15:13.001Z,17.80
2022-07-28T07:17:40.108Z,18.00
2022-07-28T07:20:07.844Z,18.10
2022-07-28T07:22:35.500Z,18.40
2022-07-28T07:25:12.670Z,18.60
2022-07-28T07:27:40.536Z,18.80
2022-07-28T07:30:09.305Z,18.90
2022-07-28T07:32:37.511Z,19.20
2022-07-28T07:35:05.126Z,19.30
2022-07-28T07:37:34.490Z,19.50
2022-07-28T07:40:04.142Z,19.50
2022-07-28T07:42:30.948Z,19.60
2022-07-28T07:44:57.721Z,19.70
2022-07-28T07:47:24.883Z,19.80
2022-07-28T07:49:51.701Z,19.90
2022-07-28T07:52:18.581Z,20.10
2022-07-28T07:54:46.043Z,20.50
2022-07-28T07:57:13.129Z,20.60
2022-07-28T07:59:40.773Z,20.80
2022-07-28T08:02:07.639Z,20.90
2022-07-28T08:04:37.673Z,20.90
2022-07-28T08:07:05.937Z,21.10
2022-07-28T08:09:33.217Z,21.40
2022-07-28T08:11:59.921Z,21.50
2022-07-28T08:14:26.704Z,21.50
2022-07-28T08:16:54.269Z,21.60
2022-07-28T08:19:21.809Z,21.50
2022-07-28T08:21:48.933Z,21.60
2022-07-28T08:24:32.435Z,21.70
2022-07-28T08:27:03.790Z,21.80
2022-07-28T08:29:31.248Z,22.10
2022-07-28T08:31:58.768Z,22.30
2022-07-28T08:34:32.859Z,22.40
2022-07-28T08:37:01.801Z,22.60
2022-07-28T08:39:28.776Z,22.60
2022-07-28T08:42:05.484Z,22.60
2022-07-28T08:44:42.256Z,22.50
2022-07-28T08:47:12.238Z,22.70
2022-07-28T08:49:41.891Z,22.80
2022-07-28T08:52:12.743Z,22.90
2022-07-28T08:54:45.579Z,23.10
2022-07-28T08:57:33.883Z,23.20
2022-07-28T09:00:01.243Z,23.10
2022-07-28T09:02:29.578Z,23.20
2022-07-28T09:04:57.812Z,23.30
2022-07-28T09:07:26.254Z,23.40
2022-07-28T09:09:53.220Z,23.40
2022-07-28T09:12:26.766Z,23.40
2022-07-28T09:14:55.222Z,23.30
2022-07-28T09:17:22.853Z,23.50
2022-07-28T09:19:53.587Z,23.50
2022-07-28T09:22:20.411Z,23.30
2022-07-28T09:24:47.153Z,23.40
2022-07-28T09:27:15.849Z,23.60
2022-07-28T09:29:47.810Z,23.60
2022-07-28T09:32:17.274Z,23.70
2022-07-28T09:34:51.690Z,23.60
2022-07-28T09:37:23.305Z,23.80
2022-07-28T09:39:57.896Z,24.10
2022-07-28T09:42:25.812Z,24.30
2022-07-28T09:45:23.800Z,24.30
2022-07-28T09:48:16.885Z,24.50
2022-07-28T09:50:43.804Z,24.80
2022-07-28T09:53:28.187Z,25.00
2022-07-28T09:55:57.823Z,25.20
2022-07-28T09:58:26.771Z,25.10
2022-07-28T10:01:20.744Z,25.20
2022-07-28T10:03:55.876Z,25.30
2022-07-28T10:06:34.307Z,25.30
2022-07-28T10:09:06.397Z,25.00
2022-07-28T10:11:37.722Z,25.00
2022-07-28T10:14:07.982Z,25.00
2022-07-28T10:16:42.927Z,25.10
2022-07-28T10:19:10.047Z,24.80
2022-07-28T10:21:44.281Z,24.90
2022-07-28T10:24:20.783Z,25.10
2022-07-28T10:26:49.720Z,25.00
2022-07-28T10:29:20.722Z,25.10
2022-07-28T10:32:14.535Z,25.00
2022-07-28T10:34:49.264Z,24.80
2022-07-28T10:37:23.408Z,24.60
2022-07-28T10:40:09.360Z,24.40
2022-07-28T10:42:39.554Z,24.40
2022-07-28T10:45:07.986Z,24.70
2022-07-28T10:47:36.595Z,24.80
2022-07-28T10:50:05.223Z,24.90
2022-07-28T10:52:50.497Z,25.10
2022-07-28T10:55:46.826Z,25.20
2022-07-28T10:58:25.218Z,25.20
2022-07-28T11:00:56.665Z,24.90
2022-07-28T11:03:40.375Z,25.00
2022-07-28T11:06:29.268Z,25.10
2022-07-28T11:09:17.773Z,24.60
2022-07-28T11:11:47.007Z,24.60
2022-07-28T11:14:23.198Z,24.70
2022-07-28T11:17:00.347Z,24.80
2022-07-28T11:19:36.687Z,25.00
2022-07-28T11:22:19.485Z,25.20
2022-07-28T11:24:58.625Z,25.10
2022-07-28T11:27:52.965Z,25.10
2022-07-28T11:30:21.341Z,24.90
2022-07-28T11:32:52.336Z,24.90
2022-07-28T11:35:22.829Z,24.80
2022-07-28T11:38:02.526Z,24.80
2022-07-28T11:40:35.138Z,24.90
2022-07-28T11:43:24.222Z,25.00
2022-07-28T11:46:07.008Z,25.00
2022-07-28T11:48:39.676Z,25.20
2022-07-28T11:51:06.779Z,25.20
2022-07-28T11:53:46.210Z,25.30
2022-07-28T11:56:24.414Z,25.20
2022-07-28T11:59:03.339Z,25.30
2022-07-28T12:01:36.910Z,25.30
2022-07-28T12:04:12.443Z,25.30
2022-07-28T12:06:43.282Z,25.30
2022-07-28T12:09:13.148Z,25.50
2022-07-28T12:11:41.819Z,25.60
2022-07-28T12:14:14.575Z,25.80
2022-07-28T12:16:44.137Z,25.60
2022-07-28T12:19:14.616Z,25.50
2022-07-28T12:21:46.335Z,25.60
2022-07-28T12:24:21.432Z,25.70
2022-07-28T12:26:50.244Z,25.50
2022-07-28T12:29:20.369Z,25.50
2022-07-28T12:32:09.090Z,25.40
2022-07-28T12:34:37.935Z,25.40
2022-07-28T12:37:10.199Z,25.20
2022-07-28T12:39:39.750Z,25.30
2022-07-28T12:42:08.801Z,25.30
2022-07-28T12:44:43.886Z,25.40
2022-07-28T12:47:12.788Z,25.50
2022-07-28T12:49:42.644Z,25.70
2022-07-28T12:52:25.071Z,25.70
2022-07-28T12:54:55.437Z,26.00
2022-07-28T12:57:48.817Z,25.90
2022-07-28T13:00:19.508Z,26.10
2022-07-28T13:02:47.257Z,26.20
2022-07-28T13:05:27.061Z,26.40
2022-07-28T13:08:05.107Z,26.40
2022-07-28T13:10:33.034Z,26.30
2022-07-28T13:13:01.595Z,26.10
2022-07-28T13:15:28.296Z,26.00
2022-07-28T13:17:56.962Z,25.80
2022-07-28T13:20:24.830Z,25.70
2022-07-28T13:22:52.635Z,25.70
2022-07-28T13:25:20.485Z,25.50
2022-07-28T13:27:53.903Z,25.50
2022-07-28T13:30:22.040Z,25.50
2022-07-28T13:32:49.393Z,25.60
2022-07-28T13:35:19.257Z,25.70
2022-07-28T13:37:48.280Z,25.90
2022-07-28T13:40:15.141Z,26.10
2022-07-28T13:42:53.219Z,26.20
2022-07-28T13:45:24.249Z,26.30
2022-07-28T13:47:52.305Z,26.40
2022-07-28T13:50:20.479Z,26.50
2022-07-28T13:52:47.318Z,26.60
2022-07-28T13:55:19.574Z,26.60
2022-07-28T13:57:49.294Z,26.60
2022-07-28T14:00:18.102Z,26.70
2022-07-28T14:02:48.632Z,26.60
2022-07-28T14:05:15.686Z,26.60
2022-07-28T14:07:42.723Z,26.70
2022-07-28T14:10:15.595Z,26.80
2022-07-28T14:12:42.312Z,26.80
2022-07-28T14:15:11.836Z,26.80
2022-07-28T14:17:43.639Z,26.90
2022-07-28T14:20:15.558Z,26.80
2022-07-28T14:22:43.918Z,26.90
2022-07-28T14:25:11.958Z,26.80
2022-07-28T14:27:46.327Z,26.60
2022-07-28T14:30:13.191Z,26.50
2022-07-28T14:32:41.108Z,26.50
2022-07-28T14:35:08.206Z,26.50
2022-07-28T14:37:54.995Z,26.50
2022-07-28T14:40:21.803Z,26.40
2022-07-28T14:42:48.459Z,26.40
2022-07-28T14:45:15.235Z,26.30
2022-07-28T14:47:44.549Z,26.20
2022-07-28T14:50:12.781Z,26.30
2022-07-28T14:52:39.544Z,26.10
2022-07-28T14:55:06.910Z,26.00
2022-07-28T14:57:50.094Z,26.10
2022-07-28T15:00:22.238Z,26.00
2022-07-28T15:02:49.159Z,26.10
2022-07-28T15:05:15.893Z,26.30
2022-07-28T15:07:42.614Z,26.40
2022-07-28T15:10:13.953Z,26.60
2022-07-28T15:12:42.714Z,26.80
2022-07-28T15:15:11.147Z,26.80
2022-07-28T15:17:38.125Z,26.70
2022-07-28T15:20:06.804Z,26.50
2022-07-28T15:22:34.364Z,26.30
2022-07-28T15:25:01.951Z,26.30
2022-07-28T15:27:33.325Z,26.20
2022-07-28T15:30:02.713Z,26.40
2022-07-28T15:32:31.845Z,26.50
2022-07-28T15:35:01.234Z,26.50
2022-07-28T15:37:28.168Z,26.60
2022-07-28T15:39:55.451Z,26.60
2022-07-28T15:42:22.933Z,26.70
2022-07-28T15:44:51.625Z,26.70
2022-07-28T15:47:18.399Z,26.60
2022-07-28T15:49:45.423Z,26.60
2022-07-28T15:52:14.071Z,26.40
2022-07-28T15:54:40.814Z,26.20
2022-07-28T15:57:08.366Z,26.00
2022-07-28T15:59:49.922Z,26.00
2022-07-28T16:02:18.125Z,25.90
2022-07-28T16:04:49.044Z,25.90
2022-07-28T16:07:24.805Z,25.90
2022-07-28T16:09:55.649Z,25.90
2022-07-28T16:12:24.796Z,25.70
2022-07-28T16:14:54.263Z,25.70
2022-07-28T16:17:23.061Z,25.50
2022-07-28T16:19:52.313Z,25.40
2022-07-28T16:22:19.896Z,25.40
2022-07-28T16:24:47.600Z,25.30
2022-07-28T16:27:15.071Z,25.20
2022-07-28T16:29:42.520Z,25.20
2022-07-28T16:32:09.738Z,25.20
2022-07-28T16:34:36.615Z,25.30
2022-07-28T16:37:05.767Z,25.30
2022-07-28T16:39:33.342Z,25.40
2022-07-28T16:42:00.014Z,25.40
2022-07-28T16:44:28.578Z,25.50
2022-07-28T16:46:55.347Z,25.60
2022-07-28T16:49:22.195Z,25.90
2022-07-28T16:51:48.981Z,26.00
2022-07-28T16:54:16.174Z,26.00
2022-07-28T16:56:43.209Z,26.10
2022-07-28T16:59:09.872Z,26.00
2022-07-28T17:01:36.594Z,26.00
2022-07-28T17:04:03.519Z,25.90
2022-07-28T17:06:30.373Z,25.90
2022-07-28T17:08:57.288Z,25.80
2022-07-28T17:11:24.456Z,25.70
2022-07-28T17:13:51.165Z,25.60
2022-07-28T17:16:17.922Z,25.50
2022-07-28T17:18:44.724Z,25.40
2022-07-28T17:21:13.332Z,25.30
2022-07-28T17:23:40.143Z,25.20
2022-07-28T17:28:54.230Z,25.00
2022-07-28T17:31:21.175Z,25.00
2022-07-28T17:33:47.950Z,24.90
2022-07-28T17:36:15.847Z,24.80
2022-07-28T17:38:42.969Z,24.80
2022-07-28T17:41:09.830Z,24.70
2022-07-28T17:43:38.272Z,24.60
2022-07-28T17:46:10.544Z,24.50
2022-07-28T17:48:38.686Z,24.50
2022-07-28T17:51:05.721Z,24.30
2022-07-28T17:53:33.557Z,24.30
2022-07-28T17:56:07.008Z,24.20
2022-07-28T17:58:35.903Z,24.10
2022-07-28T18:01:11.241Z,24.10
2022-07-28T18:03:59.562Z,24.00
2022-07-28T18:06:29.788Z,23.90
2022-07-28T18:08:56.995Z,23.90
2022-07-28T18:11:23.651Z,23.80
2022-07-28T18:14:03.944Z,23.70
2022-07-28T18:16:34.425Z,23.70
2022-07-28T18:19:02.248Z,23.60
2022-07-28T18:21:29.021Z,23.60
2022-07-28T18:23:55.733Z,23.60
2022-07-28T18:26:22.715Z,23.50
2022-07-28T18:28:49.709Z,23.50
2022-07-28T18:31:16.573Z,23.40
2022-07-28T18:33:43.456Z,23.30
2022-07-28T18:36:10.223Z,23.30
2022-07-28T18:38:37.221Z,23.20
2022-07-28T18:41:03.939Z,23.20
2022-07-28T18:43:30.747Z,23.10
2022-07-28T18:45:57.582Z,23.00
2022-07-28T18:48:27.078Z,22.90
2022-07-28T18:50:53.753Z,22.80
2022-07-28T18:53:20.524Z,22.70
2022-07-28T18:55:47.279Z,22.60
2022-07-28T18:58:13.982Z,22.50
2022-07-28T19:00:40.656Z,22.40
2022-07-28T19:03:07.428Z,22.30
2022-07-28T19:05:36.563Z,22.20
2022-07-28T19:08:04.891Z,22.00
2022-07-28T19:10:32.417Z,22.00
2022-07-28T19:12:59.426Z,21.80
2022-07-28T19:15:26.258Z,21.60
2022-07-28T19:18:11.433Z,21.50
2022-07-28T19:20:43.915Z,21.50
2022-07-28T19:23:10.608Z,21.40
2022-07-28T19:25:39.337Z,21.30
2022-07-28T19:28:06.632Z,21.30
2022-07-28T19:30:33.616Z,21.20
2022-07-28T19:33:00.483Z,21.20
2022-07-28T19:35:27.264Z,21.10
2022-07-28T19:37:56.343Z,21.10
2022-07-28T19:40:25.104Z,21.00
2022-07-28T19:42:51.787Z,20.90
2022-07-28T19:45:18.552Z,20.80
2022-07-28T19:47:45.232Z,20.80
2022-07-28T19:50:12.055Z,20.70
2022-07-28T19:53:15.002Z,20.70
2022-07-28T19:55:43.817Z,20.60
2022-07-28T19:58:18.968Z,20.60
2022-07-28T20:00:52.057Z,20.50
2022-07-28T20:04:01.687Z,20.50
2022-07-28T20:06:06.341Z,20.40
2022-07-28T20:08:33.123Z,20.40
2022-07-28T20:10:59.839Z,20.40
2022-07-28T20:13:26.624Z,20.30
2022-07-28T20:15:53.321Z,20.30
2022-07-28T20:18:20.052Z,20.20
2022-07-28T20:20:47.335Z,20.20
2022-07-28T20:23:17.273Z,20.10
2022-07-28T20:25:45.518Z,20.10
2022-07-28T20:28:12.416Z,20.00
2022-07-28T20:30:39.578Z,19.90
2022-07-28T20:33:07.857Z,19.90
2022-07-28T20:35:34.771Z,19.80
2022-07-28T20:38:03.009Z,19.70
2022-07-28T20:40:29.654Z,19.60
2022-07-28T20:42:56.624Z,19.60
2022-07-28T20:45:23.618Z,19.40
2022-07-28T20:47:50.268Z,19.40
2022-07-28T20:50:17.078Z,19.30
2022-07-28T20:52:43.757Z,19.20
2022-07-28T20:55:11.413Z,19.20
2022-07-28T20:57:38.272Z,19.10
2022-07-28T21:00:06.459Z,19.00
2022-07-28T21:02:33.378Z,19.00
2022-07-28T21:05:00.135Z,18.90
2022-07-28T21:08:05.185Z,18.90
2022-07-28T21:10:14.055Z,18.80
2022-07-28T21:12:40.816Z,18.80
2022-07-28T21:15:08.894Z,18.70
2022-07-28T21:17:36.320Z,18.70
2022-07-28T21:20:03.674Z,18.70
2022-07-28T21:22:30.789Z,18.70
2022-07-28T21:24:57.902Z,18.60
2022-07-28T21:27:24.589Z,18.60
2022-07-28T21:32:17.877Z,18.60
2022-07-28T21:34:44.649Z,18.60
2022-07-28T21:37:12.991Z,18.50
2022-07-28T21:39:39.938Z,18.50
2022-07-28T21:42:08.566Z,18.50
2022-07-28T21:44:39.210Z,18.50
2022-07-28T21:47:05.950Z,18.50
2022-07-28T21:49:32.798Z,18.50
2022-07-28T21:51:59.792Z,18.40
2022-07-28T21:54:26.825Z,18.40
2022-07-28T21:56:53.642Z,18.40
2022-07-28T21:59:20.327Z,18.30
2022-07-28T22:01:47.586Z,18.30
2022-07-28T22:04:14.770Z,18.20
2022-07-28T22:06:44.661Z,18.20
2022-07-28T22:09:14.143Z,18.20
2022-07-28T22:11:40.880Z,18.10
2022-07-28T22:14:07.585Z,18.10
2022-07-28T22:16:34.368Z,18.00
2022-07-28T22:19:01.206Z,18.10
2022-07-28T22:21:27.932Z,18.00
2022-07-28T22:23:54.615Z,18.10
2022-07-28T22:26:21.488Z,18.00
2022-07-28T22:28:48.249Z,18.00
2022-07-28T22:31:15.116Z,18.10
2022-07-28T22:33:41.906Z,18.10
2022-07-28T22:36:09.192Z,18.10
2022-07-28T22:38:36.276Z,18.10
2022-07-28T22:41:03.637Z,18.10
2022-07-28T22:43:33.174Z,18.10
2022-07-28T22:46:00.206Z,18.10
2022-07-28T22:48:26.969Z,18.10
2022-07-28T22:50:53.683Z,18.10
2022-07-28T22:53:20.358Z,18.10
2022-07-28T22:55:47.264Z,18.10
2022-07-28T22:58:13.961Z,18.10
2022-07-28T23:00:40.690Z,18.10
2022-07-28T23:03:07.540Z,18.10
2022-07-28T23:05:38.405Z,18.10
2022-07-28T23:08:05.434Z,18.10
2022-07-28T23:10:32.140Z,18.10
2022-07-28T23:12:59.380Z,18.10
2022-07-28T23:15:39.751Z,18.00
2022-07-28T23:18:11.698Z,18.00
2022-07-28T23:20:39.123Z,18.00
2022-07-28T23:23:06.304Z,18.00
2022-07-28T23:25:33.522Z,17.90
2022-07-28T23:28:00.558Z,17.90
2022-07-28T23:30:27.312Z,17.90
2022-07-28T23:32:54.594Z,17.90
2022-07-28T23:35:21.482Z,17.90
2022-07-28T23:37:48.257Z,17.90
2022-07-28T23:40:15.026Z,17.90
2022-07-28T23:42:41.709Z,17.90
2022-07-28T23:45:08.926Z,17.90
2022-07-28T23:47:35.703Z,17.80
2022-07-28T23:50:04.345Z,17.80
2022-07-28T23:52:31.103Z,17.80
2022-07-28T23:54:57.984Z,17.80
2022-07-28T23:57:24.688Z,17.80
2022-07-28T23:59:53.108Z,17.80
